Time;durP1;ratioP1;P1;durP2;ratioP2;P2;SDS_P1;SDS_P2;PMS_P1;PMS_P2;Temp;Humidity;BMP_temperature;BMP_pressure;BME280_temperature;BME280_humidity;BME280_pressure;Samples;Min_cycle;Max_cycle;Signal;HPM_P1;HPM_P2
2023/12/26 00:04:00;;;;;;;2.40;2.30;;;;;;;12.61;45.71;99443.94;10336270;28;20496;-43
2023/12/26 00:09:02;;;;;;;3.37;2.30;;;;;;;9.81;48.01;99662.09;10335713;28;20727;-43
2023/12/26 00:14:04;;;;;;;3.73;2.70;;;;;;;11.09;46.63;99590.44;10334358;28;20222;-43
2023/12/26 00:19:06;;;;;;;6.07;3.20;;;;;;;11.52;46.99;99492.03;10336959;28;20249;-41
2023/12/26 00:24:08;;;;;;;4.50;2.73;;;;;;;11.59;46.20;99541.16;10344697;28;20597;-43
2023/12/26 00:29:10;;;;;;;2.60;2.40;;;;;;;9.07;48.53;99753.47;10336648;28;20303;-43
2023/12/26 00:34:12;;;;;;;2.90;2.60;;;;;;;9.75;47.90;99712.59;10331099;28;20242;-42
2023/12/26 00:39:14;;;;;;;3.87;2.80;;;;;;;13.28;43.74;99517.28;10334417;28;20600;-42
2023/12/26 00:44:16;;;;;;;3.73;2.83;;;;;;;11.09;46.82;99587.75;10330711;28;20325;-42
2023/12/26 00:49:17;;;;;;;3.80;2.90;;;;;;;12.25;44.55;99625.69;10312371;28;20248;-44
2023/12/26 00:54:19;;;;;;;2.87;2.67;;;;;;;9.65;47.42;99744.06;10336169;28;20236;-44
2023/12/26 00:59:21;;;;;;;3.00;2.70;;;;;;;12.24;45.07;99562.31;10336219;28;20217;-44
2023/12/26 01:04:23;;;;;;;2.73;2.50;;;;;;;10.24;46.86;99770.13;10328949;28;20243;-44
2023/12/26 01:09:25;;;;;;;3.10;2.90;;;;;;;11.09;45.79;99735.88;10327042;28;20234;-44
2023/12/26 01:14:27;;;;;;;2.80;2.57;;;;;;;11.28;46.06;99635.31;10331023;28;20245;-43
2023/12/26 01:19:29;;;;;;;3.30;2.70;;;;;;;10.64;47.31;99655.63;10325414;28;20267;-44
2023/12/26 01:24:31;;;;;;;2.90;2.40;;;;;;;11.96;45.17;99686.59;10330448;28;20252;-43
2023/12/26 01:29:33;;;;;;;3.13;2.43;;;;;;;12.74;44.46;99599.66;10335307;28;20691;-43
2023/12/26 01:34:34;;;;;;;3.87;2.80;;;;;;;12.31;44.30;99723.31;10329222;28;20656;-43
2023/12/26 01:39:36;;;;;;;2.93;2.60;;;;;;;13.21;43.86;99571.00;10327373;28;20214;-44
2023/12/26 01:44:38;;;;;;;4.20;2.90;;;;;;;12.25;45.33;99614.09;10332416;28;20887;-44
2023/12/26 01:49:40;;;;;;;3.50;2.80;;;;;;;12.34;44.50;99616.41;10330362;28;20249;-44
2023/12/26 01:54:42;;;;;;;2.77;2.53;;;;;;;12.36;44.04;99680.63;10333251;28;20616;-43
2023/12/26 01:59:44;;;;;;;6.10;3.07;;;;;;;11.48;46.16;99555.09;10337208;28;20268;-44
2023/12/26 02:04:45;;;;;;;3.73;2.30;;;;;;;12.61;43.72;99710.50;10316596;28;20277;-44
2023/12/26 02:09:47;;;;;;;3.07;2.80;;;;;;;12.16;44.71;99651.00;10319538;28;20222;-43
2023/12/26 02:14:49;;;;;;;3.93;2.47;;;;;;;10.46;46.87;99698.84;10331575;28;20240;-43
2023/12/26 02:19:52;;;;;;;4.90;3.10;;;;;;;10.79;47.07;99569.16;10335758;28;20226;-43
2023/12/26 02:24:54;;;;;;;2.10;2.00;;;;;;;10.11;47.36;99580.91;10333418;28;20237;-43
2023/12/26 02:29:57;;;;;;;3.20;2.90;;;;;;;12.39;43.72;99636.47;10331953;28;20782;-44
2023/12/26 02:35:02;;;;;;;2.60;2.37;;;;;;;9.13;48.32;99747.41;10331186;28;20260;-44
2023/12/26 02:40:05;;;;;;;2.80;2.50;;;;;;;12.00;45.00;99657.53;10324033;28;20213;-43
2023/12/26 02:45:08;;;;;;;2.60;2.40;;;;;;;11.96;44.60;99607.97;10330146;28;20226;-44
2023/12/26 02:50:10;;;;;;;2.93;2.63;;;;;;;11.91;44.68;99583.63;10319224;28;20761;-44
2023/12/26 02:55:11;;;;;;;3.57;2.77;;;;;;;11.99;44.69;99537.88;10335180;28;20268;-43
2023/12/26 03:00:13;;;;;;;5.43;2.60;;;;;;;12.15;44.95;99556.31;10327066;28;20851;-43
2023/12/26 03:05:15;;;;;;;4.33;2.53;;;;;;;12.59;43.39;99647.28;10321037;28;20245;-44
2023/12/26 03:10:17;;;;;;;2.57;2.40;;;;;;;12.07;44.44;99574.44;10309374;28;20272;-43
2023/12/26 03:15:19;;;;;;;7.10;3.00;;;;;;;12.95;42.86;99627.38;10337104;28;20288;-44
2023/12/26 03:20:21;;;;;;;2.90;2.20;;;;;;;13.01;42.68;99656.09;10323934;28;20322;-44
2023/12/26 03:25:22;;;;;;;3.93;3.00;;;;;;;12.46;42.59;99729.38;10327978;28;20708;-44
2023/12/26 03:30:24;;;;;;;6.37;2.90;;;;;;;12.02;43.26;99684.16;10326958;28;20230;-44
2023/12/26 03:35:26;;;;;;;3.30;2.60;;;;;;;13.25;42.39;99657.38;10322495;28;20226;-43
2023/12/26 03:40:28;;;;;;;4.73;2.33;;;;;;;13.08;41.78;99729.47;10318426;28;20697;-43
2023/12/26 03:45:30;;;;;;;4.27;2.67;;;;;;;12.04;43.56;99687.47;10366327;28;20244;-44
2023/12/26 03:50:31;;;;;;;3.97;2.70;;;;;;;13.20;42.10;99662.53;10343386;28;20682;-44
2023/12/26 03:55:34;;;;;;;2.77;2.50;;;;;;;11.76;45.15;99555.09;10364509;28;20237;-43
2023/12/26 04:00:36;;;;;;;6.33;2.60;;;;;;;11.80;44.01;99666.25;10368524;28;20264;-44
2023/12/26 04:05:37;;;;;;;3.00;2.70;;;;;;;12.11;44.17;99608.66;10359602;28;20240;-44
2023/12/26 04:10:39;;;;;;;5.30;3.17;;;;;;;11.35;44.58;99641.53;10373850;28;20209;-43
2023/12/26 04:15:41;;;;;;;3.50;2.50;;;;;;;11.38;43.72;99771.63;10378286;28;20280;-43
2023/12/26 04:20:43;;;;;;;3.90;2.77;;;;;;;12.00;44.37;99582.44;10376625;28;20229;-44
2023/12/26 04:25:45;;;;;;;3.97;2.50;;;;;;;11.77;43.39;99757.78;10373535;28;20698;-42
2023/12/26 04:30:48;;;;;;;2.63;2.43;;;;;;;12.94;43.01;99629.25;10367593;28;20216;-44
2023/12/26 04:35:50;;;;;;;2.80;2.60;;;;;;;10.79;44.97;99678.88;10375729;28;20279;-44
2023/12/26 04:40:52;;;;;;;4.03;2.07;;;;;;;10.61;46.22;99633.75;10375139;28;20228;-43
2023/12/26 04:45:54;;;;;;;4.00;3.00;;;;;;;10.88;45.43;99662.53;10372726;28;20241;-44
2023/12/26 04:50:56;;;;;;;5.17;3.20;;;;;;;11.22;45.88;99545.00;10377250;28;20237;-43
2023/12/26 04:55:58;;;;;;;4.37;2.97;;;;;;;11.32;44.84;99592.88;10389328;28;20220;-43
2023/12/26 05:01:00;;;;;;;5.47;3.23;;;;;;;11.21;45.43;99557.56;10377191;28;20288;-43
2023/12/26 05:06:02;;;;;;;3.83;2.90;;;;;;;12.91;42.84;99552.59;10369444;28;20506;-43
2023/12/26 05:11:05;;;;;;;5.70;2.93;;;;;;;11.06;45.07;99579.06;10375576;28;20948;-43
2023/12/26 05:16:08;;;;;;;4.50;2.60;;;;;;;11.86;43.78;99603.00;10371606;28;20230;-44
2023/12/26 05:21:21;;;;;;;7.50;2.70;;;;;;;11.15;45.01;99651.25;10376915;28;20243;-43
2023/12/26 05:26:22;;;;;;;5.17;2.40;;;;;;;11.80;44.95;99524.16;10368945;28;20827;-43
2023/12/26 05:31:24;;;;;;;3.13;2.27;;;;;;;12.09;42.88;99725.25;10375318;28;20737;-44
2023/12/26 05:36:26;;;;;;;5.93;2.43;;;;;;;11.13;44.78;99621.16;10374872;28;20653;-43
2023/12/26 05:41:28;;;;;;;2.53;2.30;;;;;;;11.32;44.29;99673.25;10366242;28;20324;-43
2023/12/26 05:46:30;;;;;;;4.17;2.40;;;;;;;12.38;43.23;99606.09;10368089;28;20305;-44
2023/12/26 05:51:31;;;;;;;4.47;2.87;;;;;;;12.97;43.17;99550.09;10374731;28;20631;-43
2023/12/26 05:56:33;;;;;;;6.03;2.60;;;;;;;12.57;41.87;99765.63;10377968;28;20328;-43
2023/12/26 06:01:35;;;;;;;3.20;2.37;;;;;;;13.34;42.53;99636.53;10362440;28;20248;-43
2023/12/26 06:06:37;;;;;;;3.63;2.40;;;;;;;11.58;44.27;99627.09;10357784;28;20611;-43
2023/12/26 06:11:39;;;;;;;2.93;2.20;;;;;;;11.38;43.68;99775.09;10365050;28;20601;-43
2023/12/26 06:16:40;;;;;;;5.13;2.60;;;;;;;11.34;44.18;99765.81;10370476;28;20703;-43
2023/12/26 06:21:42;;;;;;;4.10;2.60;;;;;;;11.55;44.24;99727.47;10362081;28;20345;-43
2023/12/26 06:26:44;;;;;;;5.20;2.40;;;;;;;11.05;45.02;99708.63;10362920;28;20316;-44
2023/12/26 06:31:46;;;;;;;6.00;3.27;;;;;;;13.37;40.90;99786.63;10366456;28;20225;-43
2023/12/26 06:36:47;;;;;;;4.37;2.67;;;;;;;12.68;42.74;99689.88;10361359;28;20283;-44
2023/12/26 06:41:50;;;;;;;3.43;2.93;;;;;;;12.13;43.59;99711.25;10378394;28;20229;-44
2023/12/26 06:46:51;;;;;;;5.33;2.70;;;;;;;12.77;41.64;99802.47;10368144;28;20707;-43
2023/12/26 06:51:53;;;;;;;3.83;2.60;;;;;;;12.66;42.05;99785.91;10371843;28;20324;-43
2023/12/26 06:56:55;;;;;;;3.00;2.37;;;;;;;13.30;41.72;99746.31;10378711;28;20324;-44
2023/12/26 07:01:56;;;;;;;4.43;2.80;;;;;;;12.63;42.94;99704.94;10368016;28;20241;-43
2023/12/26 07:06:58;;;;;;;2.70;2.50;;;;;;;13.38;42.12;99696.88;10373660;28;20232;-44
2023/12/26 07:12:00;;;;;;;8.07;3.63;;;;;;;12.02;43.73;99781.50;10364081;28;20229;-43
2023/12/26 07:17:02;;;;;;;9.70;4.60;;;;;;;12.52;43.02;99730.50;10364240;28;20247;-45
2023/12/26 07:22:04;;;;;;;7.00;3.60;;;;;;;12.37;43.18;99757.41;10356473;28;20237;-42
2023/12/26 07:27:05;;;;;;;4.77;2.80;;;;;;;12.64;43.19;99720.03;10369074;28;20324;-39
2023/12/26 07:32:07;;;;;;;4.73;2.80;;;;;;;13.90;41.56;99687.16;10360410;28;20737;-43
2023/12/26 07:37:10;;;;;;;3.73;2.47;;;;;;;12.72;42.13;99854.91;10374886;28;20734;-39
2023/12/26 07:42:12;;;;;;;2.50;2.30;;;;;;;12.60;43.65;99724.13;10363054;28;20287;-42
2023/12/26 07:47:15;;;;;;;4.67;2.57;;;;;;;11.86;43.56;99879.16;10373695;28;20695;-41
2023/12/26 07:52:17;;;;;;;2.90;2.60;;;;;;;10.87;45.82;99713.59;10358065;28;20236;-42
2023/12/26 07:57:18;;;;;;;5.70;3.40;;;;;;;12.82;42.77;99770.47;10381823;28;20903;-42
2023/12/26 08:02:20;;;;;;;3.47;2.80;;;;;;;12.29;43.95;99750.34;10354558;28;20237;-39
2023/12/26 08:07:22;;;;;;;2.70;2.40;;;;;;;12.21;44.33;99766.59;10373310;28;20247;-43
2023/12/26 08:12:24;;;;;;;4.57;2.53;;;;;;;10.12;46.72;99946.22;10366059;28;20237;-42
2023/12/26 08:17:26;;;;;;;4.33;2.50;;;;;;;12.13;44.95;99756.00;10370743;28;20230;-43
2023/12/26 08:22:27;;;;;;;7.00;3.10;;;;;;;11.11;46.44;99877.63;10370069;28;20248;-42
2023/12/26 08:27:29;;;;;;;3.17;2.87;;;;;;;10.81;46.67;99949.88;10364902;28;20255;-40
2023/12/26 08:32:31;;;;;;;6.57;3.33;;;;;;;10.39;48.98;99766.63;10367422;28;20350;-43
2023/12/26 08:37:33;;;;;;;4.50;3.30;;;;;;;11.74;46.65;99774.28;10369890;28;20268;-41
2023/12/26 08:42:35;;;;;;;6.23;2.90;;;;;;;12.84;45.04;99847.16;10369317;28;20930;-42
2023/12/26 08:47:36;;;;;;;6.60;2.87;;;;;;;11.62;47.16;99803.44;10368701;28;20319;-42
2023/12/26 08:52:38;;;;;;;3.67;2.47;;;;;;;10.84;48.24;99875.38;10367339;28;20237;-42
2023/12/26 08:57:40;;;;;;;5.47;2.73;;;;;;;10.37;48.90;99900.56;10365029;28;20233;-44
2023/12/26 09:02:43;;;;;;;4.30;2.97;;;;;;;10.84;49.58;99794.25;10370139;28;20332;-42
2023/12/26 09:08:01;;;;;;;3.07;2.80;;;;;;;10.31;50.13;99882.56;10367177;28;20224;-41
2023/12/26 09:13:02;;;;;;;5.37;3.40;;;;;;;10.45;49.65;99929.09;10363027;28;20358;-41
2023/12/26 09:18:04;;;;;;;7.90;3.80;;;;;;;11.06;50.27;99728.19;10350430;28;20315;-42
2023/12/26 09:23:06;;;;;;;3.53;2.70;;;;;;;8.95;53.84;99868.63;10363775;28;20236;-44
2023/12/26 09:28:08;;;;;;;6.43;3.53;;;;;;;11.02;50.35;99805.41;10359567;28;20237;-42
2023/12/26 09:33:10;;;;;;;7.70;3.40;;;;;;;10.81;51.50;99773.22;10364166;28;20647;-42
2023/12/26 09:38:12;;;;;;;9.57;3.17;;;;;;;10.54;51.73;99836.22;10367640;28;20236;-38
2023/12/26 09:43:15;;;;;;;9.07;3.90;;;;;;;12.40;48.29;99810.69;10366839;28;20332;-39
2023/12/26 09:48:17;;;;;;;6.37;3.60;;;;;;;10.97;50.97;99842.63;10371306;28;20229;-42
2023/12/26 09:53:22;;;;;;;6.50;4.80;;;;;;;11.35;49.71;99885.31;10360353;28;20289;-41
2023/12/26 09:58:25;;;;;;;4.07;3.50;;;;;;;11.39;49.25;99980.41;10363430;28;20230;-43
2023/12/26 10:03:27;;;;;;;5.97;3.57;;;;;;;10.17;50.63;99983.13;10365463;28;20735;-43
2023/12/26 10:08:29;;;;;;;4.37;3.50;;;;;;;11.19;49.14;99955.19;10342493;28;20324;-41
2023/12/26 10:13:49;;;;;;;4.57;3.37;;;;;;;12.23;48.00;99844.19;10371446;28;20692;-41
2023/12/26 10:18:51;;;;;;;6.23;3.60;;;;;;;12.30;47.61;99888.00;10361533;28;20242;-43
2023/12/26 10:23:55;;;;;;;5.47;3.67;;;;;;;12.04;48.31;99886.75;10367433;28;20776;-40
2023/12/26 10:28:57;;;;;;;5.70;3.37;;;;;;;12.23;48.47;99857.59;10361433;28;20323;-44
2023/12/26 10:34:13;;;;;;;3.90;3.00;;;;;;;11.23;48.84;100077.03;10363855;28;20223;-43
2023/12/26 10:39:15;;;;;;;5.30;3.87;;;;;;;11.89;48.83;99897.53;10363998;28;20232;-40
2023/12/26 10:44:18;;;;;;;3.97;3.30;;;;;;;12.52;47.16;99997.03;10361557;28;20241;-42
2023/12/26 10:49:23;;;;;;;3.83;3.33;;;;;;;11.86;48.71;99938.16;10364436;28;20264;-40
2023/12/26 10:54:27;;;;;;;5.23;3.37;;;;;;;12.00;49.27;99905.06;10360149;28;20320;-41
2023/12/26 13:53:24;;;;;;;6.00;3.23;;;;;;;12.21;48.90;100099.25;10325561;28;20226;-35
2023/12/26 13:58:26;;;;;;;6.23;3.00;;;;;;;13.07;47.23;100050.19;10338114;28;20242;-35
2023/12/26 14:03:28;;;;;;;3.03;2.77;;;;;;;13.17;47.97;100009.53;10341264;28;20234;-37
2023/12/26 14:08:30;;;;;;;3.23;2.93;;;;;;;12.33;48.81;100075.44;10323138;28;20264;-33
2023/12/26 14:13:32;;;;;;;6.53;3.40;;;;;;;11.99;49.58;100095.66;10319224;28;20680;-37
2023/12/26 14:18:34;;;;;;;4.00;2.90;;;;;;;13.24;47.29;100054.22;10324637;28;20292;-36
2023/12/26 14:23:36;;;;;;;3.10;2.80;;;;;;;12.82;48.27;100079.28;10336049;28;20241;-34
2023/12/26 14:28:37;;;;;;;4.50;2.60;;;;;;;12.19;48.80;100145.03;10326546;28;20619;-44
2023/12/26 14:33:39;;;;;;;3.30;3.03;;;;;;;12.30;49.22;100068.63;10337257;28;20270;-44
2023/12/26 14:38:41;;;;;;;6.10;2.60;;;;;;;12.86;48.82;100025.00;10332821;28;20366;-44
2023/12/26 14:43:43;;;;;;;2.40;2.20;;;;;;;12.54;48.59;100150.69;10335972;28;20710;-45
2023/12/26 14:48:45;;;;;;;3.43;2.70;;;;;;;13.67;46.59;100129.44;10340131;28;20229;-45
2023/12/26 14:53:48;;;;;;;2.93;2.40;;;;;;;13.73;46.45;100119.72;10320611;28;20234;-43
2023/12/26 14:58:50;;;;;;;3.10;2.80;;;;;;;13.76;46.19;100177.69;10333749;28;20210;-44
2023/12/26 15:03:52;;;;;;;2.60;2.40;;;;;;;13.93;46.68;100094.81;10331711;28;20266;-44
2023/12/26 15:08:54;;;;;;;3.23;2.40;;;;;;;14.64;44.92;100153.72;10316728;28;20734;-44
2023/12/26 15:13:56;;;;;;;4.43;2.67;;;;;;;12.46;48.54;100166.84;10321347;28;20230;-45
2023/12/26 15:19:17;;;;;;;2.47;2.27;;;;;;;12.68;47.33;100252.88;10321610;28;20252;-45
2023/12/26 15:24:20;;;;;;;4.90;3.30;;;;;;;12.34;48.30;100238.97;10323067;28;20244;-45
2023/12/26 15:29:22;;;;;;;3.10;2.83;;;;;;;13.34;47.34;100128.34;10329532;28;20695;-45
2023/12/26 15:34:23;;;;;;;5.00;3.10;;;;;;;12.07;49.08;100202.03;10332853;28;20305;-45
2023/12/26 15:39:26;;;;;;;3.70;3.40;;;;;;;12.82;47.71;100168.78;10329127;28;20233;-45
2023/12/26 15:44:29;;;;;;;3.33;3.03;;;;;;;13.33;47.41;100079.16;10328661;28;20411;-45
2023/12/26 15:49:30;;;;;;;3.43;2.57;;;;;;;13.14;47.49;100131.66;10323426;28;20361;-45
2023/12/26 15:54:32;;;;;;;4.93;3.03;;;;;;;13.98;46.15;100085.09;10338674;28;20244;-45
2023/12/26 15:59:34;;;;;;;3.40;3.10;;;;;;;13.62;45.12;100249.38;10334067;28;20729;-45
2023/12/26 16:04:36;;;;;;;3.50;3.20;;;;;;;14.38;44.95;100213.72;10338705;28;20242;-44
2023/12/26 16:09:39;;;;;;;4.37;3.00;;;;;;;13.57;46.34;100239.19;10341974;28;20235;-44
2023/12/26 16:14:40;;;;;;;3.50;3.20;;;;;;;14.49;45.05;100147.69;10315950;28;20234;-45
2023/12/26 16:19:42;;;;;;;3.50;3.20;;;;;;;14.31;45.58;100141.00;10341778;28;20233;-44
2023/12/26 16:24:44;;;;;;;3.73;3.33;;;;;;;14.50;44.51;100205.91;10337535;28;20261;-45
2023/12/26 16:29:46;;;;;;;3.70;3.40;;;;;;;14.69;44.89;100151.25;10329382;28;20307;-45
2023/12/26 16:34:48;;;;;;;3.67;3.30;;;;;;;13.09;46.75;100296.16;10336539;28;20226;-44
2023/12/26 16:39:50;;;;;;;4.90;3.10;;;;;;;13.69;45.32;100297.84;10316769;28;20230;-43
2023/12/26 16:44:53;;;;;;;3.57;3.27;;;;;;;14.68;44.21;100206.19;10308256;28;20237;-44
2023/12/26 16:49:55;;;;;;;5.00;3.63;;;;;;;13.95;45.70;100203.06;10314439;28;20325;-45
2023/12/26 16:54:57;;;;;;;4.33;3.60;;;;;;;13.56;46.16;100237.50;10315700;28;20242;-45
2023/12/26 16:59:59;;;;;;;5.70;4.17;;;;;;;13.82;45.35;100250.38;10316311;28;20226;-45
2023/12/26 17:05:01;;;;;;;4.30;3.90;;;;;;;13.84;44.89;100285.13;10304323;28;20993;-44
2023/12/26 17:10:03;;;;;;;4.33;3.07;;;;;;;13.75;45.61;100257.56;10311245;28;20317;-44
2023/12/26 17:15:06;;;;;;;3.27;2.80;;;;;;;12.72;46.75;100305.16;10318442;28;20226;-45
2023/12/26 17:20:08;;;;;;;3.03;2.70;;;;;;;14.85;43.81;100205.84;10319373;28;20692;-44
2023/12/26 17:25:10;;;;;;;4.80;2.70;;;;;;;13.36;45.90;100261.53;10317901;28;20234;-45
2023/12/26 17:30:11;;;;;;;3.10;2.80;;;;;;;13.51;46.42;100239.94;10319099;28;20648;-44
2023/12/26 17:35:13;;;;;;;4.27;3.67;;;;;;;13.96;46.01;100194.78;10302625;28;20402;-44
2023/12/26 17:40:15;;;;;;;5.07;4.30;;;;;;;15.20;43.97;100181.44;10333988;28;20302;-44
2023/12/26 17:45:17;;;;;;;4.00;3.60;;;;;;;14.73;44.31;100244.13;10317984;28;20238;-44
2023/12/26 17:50:19;;;;;;;6.67;4.17;;;;;;;15.47;42.57;100296.41;10314657;28;20206;-44
2023/12/26 17:55:21;;;;;;;4.03;3.57;;;;;;;14.27;44.80;100301.22;10304617;28;20747;-43
2023/12/26 18:00:22;;;;;;;5.10;3.60;;;;;;;12.93;46.98;100331.28;10312233;28;20239;-44
2023/12/26 18:05:24;;;;;;;4.97;3.70;;;;;;;13.54;46.30;100306.78;10307113;28;20238;-44
2023/12/26 18:10:27;;;;;;;5.20;3.27;;;;;;;14.07;45.56;100298.41;10310677;28;20206;-44
2023/12/26 18:15:28;;;;;;;3.20;2.80;;;;;;;14.71;44.26;100288.44;10312683;28;20257;-44
2023/12/26 18:20:30;;;;;;;3.17;2.97;;;;;;;13.76;45.40;100307.59;10312266;28;20241;-43
2023/12/26 18:25:32;;;;;;;4.37;3.00;;;;;;;13.39;46.39;100281.81;10303284;28;20393;-44
2023/12/26 18:30:35;;;;;;;4.07;3.00;;;;;;;12.08;48.81;100230.53;10313414;28;20236;-43
2023/12/26 18:35:40;;;;;;;2.90;2.70;;;;;;;12.00;48.50;100258.28;10391083;28;20232;-43
2023/12/26 18:40:44;;;;;;;3.57;2.60;;;;;;;11.87;48.12;100347.38;10395376;28;20209;-43
2023/12/26 18:45:46;;;;;;;3.47;2.90;;;;;;;13.76;46.15;100204.59;10392762;28;20236;-43
2023/12/26 18:50:48;;;;;;;3.07;2.87;;;;;;;13.74;46.19;100207.47;10384289;28;20748;-43
2023/12/26 18:55:50;;;;;;;3.40;3.10;;;;;;;14.39;44.46;100237.75;10388532;28;20278;-43
2023/12/26 19:00:52;;;;;;;3.10;2.80;;;;;;;14.88;43.80;100262.00;10390699;28;20236;-43
2023/12/26 19:05:54;;;;;;;3.97;3.40;;;;;;;14.48;44.42;100251.88;10391960;28;20632;-44
2023/12/26 19:10:55;;;;;;;3.40;3.10;;;;;;;14.28;44.29;100363.97;10394963;28;20237;-43
2023/12/26 19:15:58;;;;;;;3.40;3.10;;;;;;;14.13;44.20;100378.34;10374949;28;20529;-43
2023/12/26 19:21:01;;;;;;;5.43;3.50;;;;;;;15.31;42.99;100299.47;10403539;28;20204;-43
2023/12/26 19:26:03;;;;;;;2.83;2.63;;;;;;;13.57;45.61;100295.66;10399970;28;20235;-43
2023/12/26 19:31:04;;;;;;;3.87;2.73;;;;;;;14.55;43.60;100335.38;10400179;28;20261;-43
2023/12/26 19:36:08;;;;;;;7.13;4.73;;;;;;;14.69;44.29;100242.84;10413642;28;20244;-43
2023/12/26 19:41:09;;;;;;;6.67;4.97;;;;;;;13.16;45.41;100430.59;10410637;28;20251;-44
2023/12/26 19:46:11;;;;;;;5.83;4.33;;;;;;;13.09;45.68;100387.50;10405079;28;20659;-44
2023/12/26 19:51:13;;;;;;;3.20;2.80;;;;;;;12.90;46.84;100320.91;10402602;28;20714;-44
2023/12/26 19:56:15;;;;;;;3.93;3.07;;;;;;;15.37;43.13;100295.97;10404970;28;20233;-44
2023/12/26 20:01:16;;;;;;;3.50;3.13;;;;;;;14.76;43.25;100399.09;10394563;28;20332;-43
2023/12/26 20:06:19;;;;;;;2.77;2.50;;;;;;;15.27;42.83;100334.09;10405843;28;20244;-43
2023/12/26 20:11:20;;;;;;;3.50;3.20;;;;;;;15.80;41.66;100360.41;10398256;28;20319;-42
2023/12/26 20:16:22;;;;;;;6.87;4.50;;;;;;;14.88;43.12;100385.94;10399724;28;20784;-43
2023/12/26 20:21:24;;;;;;;3.50;3.10;;;;;;;14.22;43.52;100459.78;10415692;28;20714;-43
2023/12/26 20:26:26;;;;;;;7.50;5.00;;;;;;;14.77;43.31;100368.47;10408782;28;20267;-43
2023/12/26 20:31:29;;;;;;;4.60;4.03;;;;;;;15.55;42.50;100325.06;10404797;28;20697;-44
2023/12/26 20:36:31;;;;;;;4.20;3.73;;;;;;;15.44;42.03;100409.25;10397607;28;20248;-44
2023/12/26 20:41:32;;;;;;;3.07;2.73;;;;;;;16.43;40.58;100370.00;10392240;28;20247;-44
2023/12/26 20:46:40;;;;;;;5.03;3.40;;;;;;;14.13;43.70;100431.34;10404930;28;20236;-44
2023/12/26 20:51:42;;;;;;;3.27;2.97;;;;;;;14.07;43.28;100426.72;10406134;28;20403;-44
2023/12/26 20:56:45;;;;;;;4.33;3.17;;;;;;;15.66;41.75;100337.16;10383908;28;20228;-43
2023/12/26 21:01:47;;;;;;;6.60;3.60;;;;;;;14.52;42.96;100432.72;10399379;28;20237;-43
2023/12/26 21:06:49;;;;;;;4.40;3.13;;;;;;;15.75;42.14;100340.47;10400160;28;20236;-44
2023/12/26 21:11:51;;;;;;;4.47;3.60;;;;;;;17.43;39.56;100363.50;10397037;28;20220;-44
2023/12/26 21:16:53;;;;;;;5.97;3.43;;;;;;;14.28;44.00;100372.88;10399560;28;20364;-44
2023/12/26 21:21:55;;;;;;;4.60;3.07;;;;;;;13.63;44.98;100388.16;10396636;28;20240;-44
2023/12/26 21:26:57;;;;;;;4.80;3.13;;;;;;;11.50;47.50;100415.94;10355367;28;20518;-44
2023/12/26 21:31:59;;;;;;;5.03;3.70;;;;;;;12.26;47.68;100225.63;10359644;28;20602;-43
2023/12/26 21:37:00;;;;;;;5.83;3.63;;;;;;;11.93;46.67;100402.13;10363819;28;20267;-43
2023/12/26 21:42:03;;;;;;;4.63;3.40;;;;;;;13.88;44.11;100296.34;10363064;28;20355;-43
2023/12/26 21:47:05;;;;;;;7.77;4.10;;;;;;;13.36;44.56;100283.03;10358101;28;20752;-44
2023/12/26 21:52:07;;;;;;;4.33;3.37;;;;;;;15.99;40.73;100306.66;10357203;28;20242;-44
2023/12/26 21:57:09;;;;;;;4.67;3.00;;;;;;;15.83;40.83;100335.72;10359875;28;20252;-44
2023/12/26 22:02:11;;;;;;;6.97;3.80;;;;;;;15.19;41.54;100363.94;10355680;28;20654;-43
2023/12/26 22:07:13;;;;;;;9.67;5.07;;;;;;;14.30;42.81;100448.88;10357383;28;20243;-44
2023/12/26 22:12:16;;;;;;;7.43;4.10;;;;;;;14.70;42.72;100392.66;10353671;28;20774;-44
2023/12/26 22:17:18;;;;;;;7.17;3.33;;;;;;;14.01;43.53;100472.19;10359231;28;20238;-43
2023/12/26 22:22:20;;;;;;;7.77;4.87;;;;;;;14.68;43.09;100410.88;10372147;28;20244;-43
2023/12/26 22:27:23;;;;;;;6.47;4.00;;;;;;;13.31;44.43;100529.19;10402347;28;20232;-43
2023/12/26 22:32:24;;;;;;;10.83;5.00;;;;;;;14.33;43.78;100429.66;10401889;28;20263;-43
2023/12/26 22:37:26;;;;;;;5.03;4.10;;;;;;;14.25;43.55;100412.81;10397408;28;20225;-44
2023/12/26 22:42:28;;;;;;;11.30;4.80;;;;;;;16.27;40.73;100375.84;10398737;28;20685;-43
2023/12/26 22:47:30;;;;;;;10.40;4.67;;;;;;;13.42;44.13;100450.78;10402110;28;20256;-43
2023/12/26 22:52:32;;;;;;;6.40;4.40;;;;;;;15.72;41.48;100355.19;10397294;28;20233;-43
2023/12/26 22:57:38;;;;;;;7.20;4.43;;;;;;;15.28;41.85;100405.03;10403254;28;20286;-43
2023/12/26 23:02:39;;;;;;;12.37;5.73;;;;;;;15.70;41.65;100400.44;10398147;28;20299;-44
2023/12/26 23:07:42;;;;;;;9.03;5.73;;;;;;;15.05;42.57;100408.00;10397883;28;20290;-43
2023/12/26 23:12:43;;;;;;;7.30;4.00;;;;;;;13.25;45.42;100405.25;10393061;28;20229;-44
2023/12/26 23:17:45;;;;;;;8.43;4.23;;;;;;;13.37;44.80;100461.28;10380691;28;20238;-43
2023/12/26 23:22:47;;;;;;;7.27;4.00;;;;;;;14.03;44.81;100310.53;10399713;28;20246;-43
2023/12/26 23:27:49;;;;;;;6.00;4.17;;;;;;;13.24;45.17;100381.25;10398649;28;20243;-44
2023/12/26 23:32:50;;;;;;;6.83;4.47;;;;;;;14.39;43.86;100286.19;10379131;28;20252;-43
2023/12/26 23:37:52;;;;;;;6.30;3.80;;;;;;;14.97;42.30;100365.91;10384144;28;20224;-44
2023/12/26 23:42:54;;;;;;;5.17;4.07;;;;;;;13.07;45.17;100456.69;10374384;28;20283;-44
2023/12/26 23:47:56;;;;;;;11.10;5.87;;;;;;;13.29;45.29;100435.31;10395012;28;20236;-44
2023/12/26 23:53:02;;;;;;;9.53;5.00;;;;;;;14.70;42.20;100484.25;10399501;28;20240;-43
2023/12/26 23:58:04;;;;;;;7.30;4.77;;;;;;;13.55;45.02;100386.44;10403516;28;20240;-44
